Time;durP1;ratioP1;P1;durP2;ratioP2;P2;SDS_P1;SDS_P2;PMS_P1;PMS_P2;Temp;Humidity;BMP_temperature;BMP_pressure;BME280_temperature;BME280_humidity;BME280_pressure;Samples;Min_cycle;Max_cycle;Signal;HPM_P1;HPM_P2
2024/01/23 00:01:12;;;;;;;11.68;7.75;;;;;;;-145.63;49.35;39071.19;5033257;28;20029;-68
2024/01/23 00:03:38;;;;;;;11.73;8.07;;;;;;;-145.63;49.09;39077.06;5033305;28;20443;-67
2024/01/23 00:06:04;;;;;;;12.00;8.55;;;;;;;-145.63;50.36;39079.00;5033110;28;20036;-67
2024/01/23 00:08:29;;;;;;;11.75;8.45;;;;;;;-145.63;50.13;39051.63;5033365;28;20025;-67
2024/01/23 00:11:18;;;;;;;13.02;8.32;;;;;;;-145.63;48.56;39063.34;5030826;28;20103;-67
2024/01/23 00:13:45;;;;;;;12.13;8.23;;;;;;;-145.63;49.88;39063.34;5032299;28;20482;-68
2024/01/23 00:16:11;;;;;;;10.38;7.72;;;;;;;-145.63;49.68;39059.44;5035872;28;20029;-69
2024/01/23 00:18:38;;;;;;;9.65;7.50;;;;;;;-145.63;49.25;39084.88;5053086;28;20032;-68
2024/01/23 00:21:04;;;;;;;13.77;9.23;;;;;;;-145.63;48.77;39086.81;5040653;28;20156;-67
2024/01/23 00:23:30;;;;;;;11.95;8.40;;;;;;;-145.63;50.01;39069.22;5033024;28;20459;-67
2024/01/23 00:25:55;;;;;;;12.30;8.15;;;;;;;-145.63;49.75;39077.06;5032719;28;20040;-68
2024/01/23 00:28:21;;;;;;;13.85;9.02;;;;;;;-145.63;49.28;39063.34;5033068;28;20044;-68
2024/01/23 00:30:47;;;;;;;14.07;9.20;;;;;;;-145.63;49.35;39125.94;5031207;28;20037;-69
2024/01/23 00:33:13;;;;;;;15.02;9.07;;;;;;;-145.63;49.19;39075.09;5032557;28;20033;-66
2024/01/23 00:35:38;;;;;;;11.55;8.38;;;;;;;-145.63;49.58;39059.44;5045920;28;20131;-66
2024/01/23 00:38:04;;;;;;;12.63;8.30;;;;;;;-145.63;48.70;39092.69;5042674;28;20037;-66
2024/01/23 00:40:30;;;;;;;13.30;9.00;;;;;;;-145.63;48.98;39065.31;5024914;28;20044;-67
2024/01/23 00:42:55;;;;;;;11.30;8.07;;;;;;;-145.63;49.00;39079.00;5032536;28;20053;-67
2024/01/23 00:45:21;;;;;;;12.10;8.93;;;;;;;-145.63;49.40;39055.53;5033272;28;20505;-67
2024/01/23 00:47:47;;;;;;;11.35;7.88;;;;;;;-145.63;49.53;39077.06;5032540;28;20040;-67
2024/01/23 00:50:13;;;;;;;12.32;8.57;;;;;;;-145.63;50.03;39116.16;5032576;28;20029;-67
2024/01/23 00:52:38;;;;;;;14.02;9.75;;;;;;;-145.63;50.08;39049.66;5032517;28;20114;-68
2024/01/23 00:55:04;;;;;;;14.30;9.32;;;;;;;-145.63;49.94;39063.34;5032572;28;20030;-69
2024/01/23 00:57:32;;;;;;;12.35;9.27;;;;;;;-145.63;49.36;39086.81;5032633;28;20049;-68
2024/01/23 00:59:58;;;;;;;12.70;8.88;;;;;;;-145.63;49.83;39071.19;5031902;28;20430;-68
2024/01/23 01:02:23;;;;;;;13.35;9.73;;;;;;;-145.63;49.33;39028.16;5032633;28;20068;-69
2024/01/23 01:04:49;;;;;;;11.18;8.90;;;;;;;-145.63;49.88;39057.50;5030820;28;20101;-67
2024/01/23 01:07:15;;;;;;;12.48;9.02;;;;;;;-145.63;49.55;39073.13;5012787;28;20030;-67
2024/01/23 01:09:41;;;;;;;13.88;9.25;;;;;;;-145.63;49.57;39075.09;5028966;28;20543;-67
2024/01/23 01:12:07;;;;;;;13.98;8.90;;;;;;;-145.63;49.14;39030.13;5019987;28;20127;-66
2024/01/23 01:14:37;;;;;;;14.07;9.43;;;;;;;-145.63;49.32;39051.63;5020104;28;20109;-68
2024/01/23 01:17:04;;;;;;;14.45;10.13;;;;;;;-145.63;49.29;39120.06;5021382;28;20454;-67
2024/01/23 01:19:31;;;;;;;13.90;9.50;;;;;;;-145.63;49.24;39080.97;5012590;28;20041;-68
2024/01/23 01:21:56;;;;;;;14.05;9.80;;;;;;;-145.63;49.73;39073.13;5031270;28;20379;-67
2024/01/23 01:24:22;;;;;;;14.63;9.55;;;;;;;-145.63;49.69;39073.13;5032094;28;20030;-68
2024/01/23 01:26:48;;;;;;;14.75;9.23;;;;;;;-145.63;49.29;39039.88;5032171;28;20572;-67
2024/01/23 01:29:13;;;;;;;13.55;9.73;;;;;;;-145.63;49.71;39051.63;5031960;28;20068;-67
2024/01/23 01:31:39;;;;;;;15.52;9.18;;;;;;;-145.63;49.42;39084.88;5032019;28;20049;-68
2024/01/23 01:34:05;;;;;;;14.30;9.98;;;;;;;-145.63;49.95;39077.06;5031501;28;20026;-67
2024/01/23 01:36:30;;;;;;;12.75;9.20;;;;;;;-145.63;48.56;39084.88;5031763;28;20054;-67
2024/01/23 01:38:56;;;;;;;12.60;9.32;;;;;;;-145.63;49.04;39077.06;5021494;28;20053;-67
2024/01/23 01:41:22;;;;;;;15.50;9.32;;;;;;;-145.63;49.19;39094.66;5017914;28;20041;-65
2024/01/23 01:43:48;;;;;;;14.57;9.52;;;;;;;-145.63;49.45;39100.50;5030463;28;20057;-69
2024/01/23 01:46:23;;;;;;;15.85;9.85;;;;;;;-145.63;49.08;39075.09;5031601;28;20029;-67
2024/01/23 01:48:49;;;;;;;13.57;9.35;;;;;;;-145.63;48.64;39100.50;5031486;28;20074;-66
2024/01/23 01:51:17;;;;;;;14.57;10.25;;;;;;;-145.63;49.57;39069.22;5031280;28;20455;-67
2024/01/23 01:53:43;;;;;;;14.07;9.82;;;;;;;-145.63;49.65;39092.69;5032288;28;20121;-66
2024/01/23 01:56:09;;;;;;;13.68;9.23;;;;;;;-145.63;49.07;39082.91;5028479;28;20041;-68
2024/01/23 01:58:36;;;;;;;13.68;9.77;;;;;;;-145.63;48.73;39135.72;5011949;28;20042;-68
2024/01/23 02:01:02;;;;;;;15.38;10.35;;;;;;;-145.63;49.34;39098.56;5031048;28;20033;-67
2024/01/23 02:03:29;;;;;;;12.82;9.77;;;;;;;-145.63;49.59;39086.81;5032156;28;20517;-66
2024/01/23 02:05:59;;;;;;;15.90;10.07;;;;;;;-145.63;49.51;39073.13;5031898;28;20035;-68
2024/01/23 02:08:24;;;;;;;15.57;10.52;;;;;;;-145.63;48.62;39079.00;5024975;28;20061;-68
2024/01/23 02:10:51;;;;;;;15.15;10.55;;;;;;;-145.63;49.69;39102.47;5012927;28;20115;-68
2024/01/23 02:13:16;;;;;;;15.57;10.73;;;;;;;-145.63;49.82;39067.28;5032240;28;20032;-67
2024/01/23 02:15:42;;;;;;;14.63;9.45;;;;;;;-145.63;48.85;39125.94;5027511;28;20030;-69
2024/01/23 02:18:08;;;;;;;16.20;10.32;;;;;;;-145.63;48.96;39108.34;5049884;28;20044;-70
2024/01/23 02:20:33;;;;;;;13.65;9.85;;;;;;;-145.63;49.74;39067.28;5046118;28;20030;-69
2024/01/23 02:22:59;;;;;;;15.98;10.73;;;;;;;-145.63;49.40;39047.72;5031982;28;20117;-69
2024/01/23 02:25:25;;;;;;;13.95;10.23;;;;;;;-145.63;49.25;39080.97;5032314;28;20357;-68
2024/01/23 02:27:51;;;;;;;15.43;10.45;;;;;;;-145.63;49.47;39086.81;5034074;28;20064;-67
2024/01/23 02:30:16;;;;;;;14.48;10.07;;;;;;;-145.63;49.04;39082.91;5035893;28;20451;-66
2024/01/23 02:32:43;;;;;;;15.85;10.50;;;;;;;-145.63;49.02;39075.09;5035503;28;20073;-66
2024/01/23 02:35:09;;;;;;;15.57;11.20;;;;;;;-145.63;48.96;39114.22;5034926;28;20029;-66
2024/01/23 02:37:36;;;;;;;17.95;11.82;;;;;;;-145.63;49.21;39077.06;5034527;28;20402;-65
2024/01/23 02:40:03;;;;;;;15.15;10.68;;;;;;;-145.63;49.53;39094.66;5016397;28;20042;-67
2024/01/23 02:42:29;;;;;;;18.23;10.80;;;;;;;-145.63;49.13;39065.31;5029929;28;20029;-66
2024/01/23 02:44:55;;;;;;;16.38;10.75;;;;;;;-145.63;48.80;39079.00;5035104;28;20537;-67
2024/01/23 02:47:21;;;;;;;16.90;10.75;;;;;;;-145.63;49.60;39084.88;5035048;28;20041;-67
2024/01/23 02:49:46;;;;;;;16.90;11.27;;;;;;;-145.63;50.24;39063.34;5034778;28;20053;-67
2024/01/23 02:52:13;;;;;;;16.70;10.85;;;;;;;-145.63;49.24;39104.44;5034847;28;20426;-67
2024/01/23 02:54:38;;;;;;;18.85;11.95;;;;;;;-145.63;50.54;39075.09;5034889;28;20084;-67
2024/01/23 02:57:04;;;;;;;15.70;10.55;;;;;;;-145.63;49.02;39086.81;5023574;28;20455;-66
2024/01/23 02:59:30;;;;;;;16.83;11.85;;;;;;;-145.63;50.34;39094.66;5020593;28;20122;-67
2024/01/23 03:01:56;;;;;;;18.48;10.95;;;;;;;-145.63;49.63;39061.41;5032276;28;20029;-66
2024/01/23 03:04:21;;;;;;;16.10;11.48;;;;;;;-145.63;50.29;39063.34;5034270;28;20466;-67
2024/01/23 03:06:47;;;;;;;16.63;10.88;;;;;;;-145.63;50.43;39077.06;5033707;28;20053;-67
2024/01/23 03:09:13;;;;;;;16.60;10.77;;;;;;;-145.63;49.84;39071.19;5022040;28;20033;-67
2024/01/23 03:11:40;;;;;;;17.88;11.38;;;;;;;-145.63;50.45;39090.75;5021792;28;20147;-67
2024/01/23 03:14:06;;;;;;;15.48;11.63;;;;;;;-145.63;49.40;39118.13;5033720;28;20029;-67
2024/01/23 03:16:32;;;;;;;16.38;11.68;;;;;;;-145.63;49.81;39077.06;5035046;28;20374;-68
2024/01/23 03:18:58;;;;;;;18.38;11.88;;;;;;;-145.63;49.64;39096.59;5055126;28;20036;-67
2024/01/23 03:21:23;;;;;;;18.38;12.30;;;;;;;-145.63;50.00;39082.91;5041258;28;20057;-66
2024/01/23 03:23:49;;;;;;;15.43;11.23;;;;;;;-145.63;49.65;39118.13;5035331;28;20029;-67
2024/01/23 03:26:15;;;;;;;17.70;11.13;;;;;;;-145.63;49.81;39080.97;5036565;28;20041;-67
2024/01/23 03:28:41;;;;;;;17.67;10.90;;;;;;;-145.63;49.83;39122.03;5034434;28;20233;-68
2024/01/23 03:31:06;;;;;;;21.55;12.45;;;;;;;-145.63;49.53;39094.66;5033964;28;20108;-66
2024/01/23 03:33:33;;;;;;;21.30;12.52;;;;;;;-145.63;49.95;39104.44;5033851;28;20026;-67
2024/01/23 03:35:59;;;;;;;19.27;12.02;;;;;;;-145.63;50.03;39102.47;5033248;28;20049;-67
2024/01/23 03:38:24;;;;;;;17.55;11.20;;;;;;;-145.63;50.52;39067.28;5032726;28;20482;-67
2024/01/23 03:40:50;;;;;;;17.08;11.32;;;;;;;-145.63;49.86;39084.88;5033219;28;20029;-66
2024/01/23 03:43:16;;;;;;;17.55;11.63;;;;;;;-145.63;50.38;39116.16;5033817;28;20413;-66
2024/01/23 03:45:42;;;;;;;18.65;11.85;;;;;;;-145.63;50.10;39116.16;5033333;28;20025;-67
2024/01/23 03:48:08;;;;;;;16.52;11.90;;;;;;;-145.63;50.56;39079.00;5033301;28;20034;-66
2024/01/23 03:50:33;;;;;;;19.60;12.93;;;;;;;-145.63;49.88;39079.00;5033568;28;20045;-68
2024/01/23 03:52:59;;;;;;;20.75;12.32;;;;;;;-145.63;50.20;39106.38;5032723;28;20474;-67
2024/01/23 03:55:25;;;;;;;18.42;11.57;;;;;;;-145.63;49.80;39106.38;5033927;28;20375;-67
2024/01/23 03:57:51;;;;;;;20.52;11.32;;;;;;;-145.63;49.78;39069.22;5016499;28;20036;-68
2024/01/23 04:00:18;;;;;;;17.05;11.68;;;;;;;-145.63;49.90;39024.25;5025863;28;20370;-68
2024/01/23 04:02:43;;;;;;;17.02;11.48;;;;;;;-145.63;49.63;39059.44;5033337;28;20049;-66
2024/01/23 04:05:10;;;;;;;17.02;11.70;;;;;;;-145.63;50.05;39077.06;5033205;28;20052;-67
2024/01/23 04:07:36;;;;;;;18.77;11.95;;;;;;;-145.63;49.97;39127.91;5032976;28;20033;-65
2024/01/23 04:10:02;;;;;;;17.15;11.55;;;;;;;-145.63;49.61;39043.81;5014515;28;20045;-66
2024/01/23 04:12:30;;;;;;;19.48;12.15;;;;;;;-145.63;49.75;39082.91;5026620;28;20116;-66
2024/01/23 04:14:56;;;;;;;17.05;11.40;;;;;;;-145.63;50.27;39057.50;5032339;28;20112;-65
2024/01/23 04:17:21;;;;;;;18.85;11.77;;;;;;;-145.63;50.96;39098.56;5040202;28;20033;-66
2024/01/23 04:19:48;;;;;;;19.15;11.45;;;;;;;-145.63;49.86;39102.47;5051824;28;20118;-66
2024/01/23 04:22:14;;;;;;;18.60;12.23;;;;;;;-145.63;49.96;39084.88;5032717;28;20159;-66
2024/01/23 04:24:42;;;;;;;18.85;11.77;;;;;;;-145.63;50.44;39016.44;5032439;28;20101;-66
2024/01/23 04:27:08;;;;;;;20.90;11.65;;;;;;;-145.63;50.68;39090.75;5032686;28;20026;-64
2024/01/23 04:29:34;;;;;;;20.35;12.23;;;;;;;-145.63;50.04;39090.75;5033299;28;20072;-66
2024/01/23 04:32:00;;;;;;;20.33;12.32;;;;;;;-145.63;49.72;38969.50;5031918;28;20057;-66
2024/01/23 04:34:25;;;;;;;20.45;12.25;;;;;;;-145.63;50.37;39102.47;5032688;28;20382;-67
2024/01/23 04:36:51;;;;;;;18.98;11.88;;;;;;;-145.63;50.89;39067.28;5032814;28;20061;-65
2024/01/23 04:39:17;;;;;;;17.77;11.48;;;;;;;-145.63;51.47;39059.44;5020921;28;20041;-66
2024/01/23 04:41:43;;;;;;;20.02;12.70;;;;;;;-145.63;50.59;39080.97;5019800;28;20033;-66
2024/01/23 04:44:09;;;;;;;17.65;11.93;;;;;;;-145.63;50.97;39090.75;5014952;28;20430;-67
2024/01/23 04:46:35;;;;;;;18.58;12.27;;;;;;;-145.63;51.09;39071.19;5032701;28;20025;-64
2024/01/23 04:49:00;;;;;;;17.80;11.77;;;;;;;-145.63;50.79;39069.22;5031873;28;20116;-64
2024/01/23 04:51:27;;;;;;;19.02;12.95;;;;;;;-145.63;51.26;39069.22;5031635;28;20110;-64
2024/01/23 04:53:56;;;;;;;18.60;12.07;;;;;;;-145.63;51.04;39080.97;5031743;28;20036;-64
2024/01/23 04:56:25;;;;;;;19.92;13.27;;;;;;;-145.63;50.14;39071.19;5024008;28;20033;-65
2024/01/23 04:58:50;;;;;;;18.35;12.07;;;;;;;-145.63;51.11;39080.97;5012289;28;20297;-65
2024/01/23 05:01:17;;;;;;;22.17;12.52;;;;;;;-145.63;51.11;39090.75;5029859;28;20030;-67
2024/01/23 05:03:43;;;;;;;20.38;13.02;;;;;;;-145.63;50.50;39094.66;5024027;28;20034;-65
2024/01/23 05:06:09;;;;;;;19.63;12.50;;;;;;;-145.63;50.19;39174.84;5022428;28;20071;-66
2024/01/23 05:08:35;;;;;;;20.88;12.23;;;;;;;-145.63;50.68;39098.56;5030564;28;20034;-65
2024/01/23 05:11:01;;;;;;;21.77;13.23;;;;;;;-145.63;51.54;39080.97;5030455;28;20428;-65
2024/01/23 05:13:26;;;;;;;20.48;12.02;;;;;;;-145.63;51.14;39088.78;5032027;28;20037;-66
2024/01/23 05:15:52;;;;;;;18.38;12.63;;;;;;;-145.63;51.37;39102.47;5030565;28;20477;-66
2024/01/23 05:18:18;;;;;;;24.55;12.90;;;;;;;-145.63;50.92;39110.28;5032050;28;20082;-66
2024/01/23 05:20:43;;;;;;;21.98;13.68;;;;;;;-145.63;50.65;39090.75;5031560;28;20493;-65
2024/01/23 05:23:13;;;;;;;20.50;12.73;;;;;;;-145.63;51.54;39182.66;5031790;28;20469;-67
2024/01/23 05:25:42;;;;;;;21.13;13.00;;;;;;;-145.63;51.01;39114.22;5018447;28;20037;-66
2024/01/23 05:28:08;;;;;;;20.35;12.57;;;;;;;-145.63;50.51;39082.91;5029788;28;20045;-66
2024/01/23 05:30:34;;;;;;;19.52;12.57;;;;;;;-145.63;51.56;38918.66;5031910;28;20037;-65
2024/01/23 05:33:00;;;;;;;21.80;11.18;;;;;;;-145.63;51.58;39100.50;5031153;28;20029;-67
2024/01/23 05:35:26;;;;;;;21.65;12.98;;;;;;;-145.63;51.16;39086.81;5031346;28;20523;-69
2024/01/23 05:37:51;;;;;;;19.75;13.27;;;;;;;-145.63;51.25;39080.97;5031320;28;20037;-66
2024/01/23 05:40:17;;;;;;;22.15;13.77;;;;;;;-145.63;51.32;39059.44;5012042;28;20042;-66
2024/01/23 05:42:44;;;;;;;19.88;13.25;;;;;;;-145.63;51.93;39100.50;5026317;28;20108;-66
2024/01/23 05:45:10;;;;;;;18.15;12.55;;;;;;;-145.63;52.36;39079.00;5031535;28;20471;-66
2024/01/23 05:47:36;;;;;;;21.85;13.93;;;;;;;-145.63;52.81;39071.19;5031551;28;20113;-67
2024/01/23 05:50:02;;;;;;;23.67;14.32;;;;;;;-145.63;52.86;39090.75;5031035;28;20109;-66
2024/01/23 05:52:29;;;;;;;23.67;13.63;;;;;;;-145.63;52.82;39079.00;5031609;28;20034;-66
2024/01/23 05:54:55;;;;;;;24.50;14.18;;;;;;;-145.63;52.65;39104.44;5031446;28;20071;-66
2024/01/23 05:57:21;;;;;;;21.35;14.25;;;;;;;-145.63;51.75;39098.56;5020298;28;20029;-69
2024/01/23 05:59:46;;;;;;;23.48;14.07;;;;;;;-145.63;52.16;39084.88;5016636;28;20088;-66
2024/01/23 06:02:12;;;;;;;21.20;13.85;;;;;;;-145.63;52.42;39086.81;5031287;28;20065;-68
2024/01/23 06:04:38;;;;;;;23.27;15.43;;;;;;;-145.63;52.56;39106.38;5033742;28;20060;-66
2024/01/23 06:07:06;;;;;;;23.20;13.82;;;;;;;-145.63;51.41;39079.00;5034999;28;20064;-67
2024/01/23 06:09:32;;;;;;;21.45;13.73;;;;;;;-145.63;51.70;39112.25;5033095;28;20048;-67
2024/01/23 06:11:58;;;;;;;20.75;13.30;;;;;;;-145.63;51.04;39114.22;5027090;28;20065;-67
2024/01/23 06:14:24;;;;;;;23.92;15.18;;;;;;;-145.63;51.57;39125.94;5018506;28;20087;-67
2024/01/23 06:16:50;;;;;;;20.98;14.63;;;;;;;-145.63;50.93;39110.28;5043008;28;20481;-68
2024/01/23 06:19:18;;;;;;;22.33;14.57;;;;;;;-145.63;51.07;39145.50;5055286;28;20045;-66
2024/01/23 06:21:43;;;;;;;27.90;14.02;;;;;;;-145.63;51.47;39051.63;5039153;28;20352;-68
2024/01/23 06:24:09;;;;;;;24.30;14.90;;;;;;;-145.63;51.14;39096.59;5024872;28;20040;-66
2024/01/23 06:26:35;;;;;;;23.60;14.70;;;;;;;-145.63;51.71;39080.97;5019477;28;20038;-66
2024/01/23 06:29:02;;;;;;;24.48;15.73;;;;;;;-145.63;51.22;39075.09;5034541;28;20382;-67
2024/01/23 06:31:29;;;;;;;24.50;14.98;;;;;;;-145.63;51.38;39067.28;5034912;28;20026;-66
2024/01/23 06:33:55;;;;;;;23.58;15.20;;;;;;;-145.63;51.08;39057.50;5034239;28;20064;-67
2024/01/23 06:36:21;;;;;;;24.77;14.88;;;;;;;-145.63;51.10;39096.59;5025779;28;20254;-66
2024/01/23 06:38:47;;;;;;;24.00;15.10;;;;;;;-145.63;51.45;39057.50;5021184;28;20120;-66
2024/01/23 06:41:13;;;;;;;26.05;14.27;;;;;;;-145.63;51.50;39053.59;5034896;28;20029;-67
2024/01/23 06:43:38;;;;;;;24.23;15.25;;;;;;;-145.63;51.07;39084.88;5034504;28;20085;-69
2024/01/23 06:46:04;;;;;;;25.60;15.73;;;;;;;-145.63;51.52;39080.97;5033922;28;20127;-67
2024/01/23 06:48:31;;;;;;;25.05;15.93;;;;;;;-145.63;50.67;39065.31;5034537;28;20048;-67
2024/01/23 06:51:00;;;;;;;24.50;15.05;;;;;;;-145.63;51.36;39061.41;5034404;28;20057;-68
2024/01/23 06:53:29;;;;;;;25.50;14.73;;;;;;;-145.63;51.08;39090.75;5034179;28;20029;-69
2024/01/23 06:55:54;;;;;;;25.23;16.33;;;;;;;-145.63;51.39;39090.75;5033631;28;20033;-66
2024/01/23 06:58:23;;;;;;;24.63;15.45;;;;;;;-145.63;50.59;39079.00;5038984;28;20391;-68
2024/01/23 07:00:49;;;;;;;23.40;15.38;;;;;;;-145.63;51.04;39086.81;5038154;28;20026;-65
2024/01/23 07:03:15;;;;;;;25.73;15.75;;;;;;;-145.63;50.49;39069.22;5035024;28;20082;-65
2024/01/23 07:05:41;;;;;;;26.02;16.05;;;;;;;-145.63;50.70;39051.63;5034760;28;20036;-67
2024/01/23 07:08:07;;;;;;;27.23;16.20;;;;;;;-145.63;51.32;39043.81;5032193;28;20129;-67
2024/01/23 07:10:33;;;;;;;25.70;15.68;;;;;;;-145.63;51.61;39090.75;5034386;28;20410;-66
2024/01/23 07:12:58;;;;;;;24.95;15.55;;;;;;;-145.63;51.46;39057.50;5018116;28;20034;-65
2024/01/23 07:15:24;;;;;;;26.92;16.45;;;;;;;-145.63;52.07;39071.19;5024517;28;20105;-66
2024/01/23 07:17:51;;;;;;;29.70;17.17;;;;;;;-145.63;51.71;39080.97;5050618;28;20036;-65
2024/01/23 07:20:17;;;;;;;27.45;16.75;;;;;;;-145.63;51.27;39080.97;5051562;28;20102;-66
2024/01/23 07:22:43;;;;;;;27.35;15.82;;;;;;;-145.63;51.02;39063.34;5022075;28;20033;-66
2024/01/23 07:25:09;;;;;;;29.55;16.10;;;;;;;-145.63;51.55;39088.78;5023498;28;20095;-65
2024/01/23 07:27:35;;;;;;;30.42;16.55;;;;;;;-145.63;51.10;39055.53;5021220;28;20453;-67
2024/01/23 07:30:01;;;;;;;25.85;17.35;;;;;;;-145.63;51.09;39059.44;5021527;28;20064;-66
2024/01/23 07:32:26;;;;;;;25.33;16.48;;;;;;;-145.63;50.68;39024.25;5034266;28;20119;-66
2024/01/23 07:34:52;;;;;;;24.20;15.70;;;;;;;-145.63;50.22;39080.97;5034800;28;20048;-66
2024/01/23 07:37:18;;;;;;;24.05;16.10;;;;;;;-145.63;51.00;39071.19;5018687;28;20089;-66
2024/01/23 07:39:43;;;;;;;27.60;16.70;;;;;;;-145.63;50.72;39098.56;5029516;28;20538;-65
2024/01/23 07:42:11;;;;;;;26.92;16.35;;;;;;;-145.63;50.46;39094.66;5036423;28;20041;-65
2024/01/23 07:44:38;;;;;;;30.63;17.33;;;;;;;-145.63;51.10;39084.88;5035297;28;20033;-66
2024/01/23 07:47:04;;;;;;;27.05;17.75;;;;;;;-145.63;50.86;39049.66;5033855;28;20084;-65
2024/01/23 07:49:29;;;;;;;27.27;16.98;;;;;;;-145.63;50.47;39049.66;5033519;28;20032;-65
2024/01/23 07:51:55;;;;;;;27.23;16.88;;;;;;;-145.63;51.22;39065.31;5033033;28;20116;-66
2024/01/23 07:54:21;;;;;;;28.58;17.75;;;;;;;-145.63;50.38;39080.97;5033413;28;20033;-65
2024/01/23 07:56:47;;;;;;;25.25;15.80;;;;;;;-145.63;50.25;39092.69;5026515;28;20029;-67
2024/01/23 07:59:13;;;;;;;29.48;17.73;;;;;;;-145.63;50.41;39084.88;5032743;28;20032;-67
2024/01/23 08:01:39;;;;;;;27.00;16.80;;;;;;;-145.63;51.50;39088.78;5033131;28;20052;-67
2024/01/23 08:04:04;;;;;;;28.77;17.52;;;;;;;-145.63;50.87;39067.28;5032877;28;20033;-67
2024/01/23 08:06:30;;;;;;;25.77;17.17;;;;;;;-145.63;50.49;39077.06;5032805;28;20085;-65
2024/01/23 08:08:56;;;;;;;30.85;17.67;;;;;;;-145.63;51.14;39053.59;5032841;28;20037;-66
2024/01/23 08:11:21;;;;;;;30.38;17.42;;;;;;;-145.63;50.88;39065.31;5032980;28;20044;-67
2024/01/23 08:13:47;;;;;;;29.73;17.42;;;;;;;-145.63;50.67;39059.44;5032844;28;20041;-67
2024/01/23 08:16:13;;;;;;;29.45;18.08;;;;;;;-145.63;50.03;39075.09;5021338;28;20022;-66
2024/01/23 08:18:39;;;;;;;30.52;18.00;;;;;;;-145.63;50.66;39049.66;5012895;28;20036;-66
2024/01/23 08:21:05;;;;;;;28.90;17.75;;;;;;;-145.63;50.96;39114.22;5021607;28;20034;-67
2024/01/23 08:23:31;;;;;;;28.48;18.25;;;;;;;-145.63;50.45;39071.19;5033910;28;20029;-67
2024/01/23 08:25:57;;;;;;;28.60;17.90;;;;;;;-145.63;50.56;39063.34;5033538;28;20042;-66
2024/01/23 08:28:23;;;;;;;31.23;19.50;;;;;;;-145.63;50.85;39049.66;5033856;28;20029;-67
2024/01/23 08:30:49;;;;;;;29.63;17.60;;;;;;;-145.63;50.85;39079.00;5033421;28;20037;-67
2024/01/23 08:33:19;;;;;;;31.35;18.95;;;;;;;-145.63;50.93;39069.22;5033574;28;20036;-67
2024/01/23 08:35:46;;;;;;;32.28;18.70;;;;;;;-145.63;50.55;39067.28;5032579;28;20073;-66
2024/01/23 08:38:12;;;;;;;28.65;18.42;;;;;;;-145.63;50.90;39088.78;5033270;28;20417;-67
2024/01/23 08:40:39;;;;;;;28.85;17.92;;;;;;;-145.63;50.51;39104.44;5033264;28;20124;-66
2024/01/23 08:43:05;;;;;;;28.85;18.65;;;;;;;-145.63;50.67;39094.66;5031360;28;20039;-65
2024/01/23 08:45:32;;;;;;;30.27;18.58;;;;;;;-145.63;50.82;39090.75;5026856;28;20029;-65
2024/01/23 08:47:58;;;;;;;28.65;18.60;;;;;;;-145.63;50.60;39061.41;5031764;28;20386;-66
2024/01/23 08:50:24;;;;;;;28.98;18.58;;;;;;;-145.63;50.55;39088.78;5032049;28;20032;-67
2024/01/23 08:52:49;;;;;;;30.35;18.30;;;;;;;-145.63;51.30;39075.09;5031870;28;20029;-66
2024/01/23 08:55:15;;;;;;;30.08;18.35;;;;;;;-145.63;50.36;39075.09;5032114;28;20371;-67
2024/01/23 08:57:43;;;;;;;31.35;19.92;;;;;;;-145.63;51.29;39086.81;5024409;28;20026;-66
2024/01/23 09:00:11;;;;;;;32.45;18.48;;;;;;;-145.63;51.04;39051.63;5023293;28;20129;-67
2024/01/23 09:02:37;;;;;;;30.50;18.15;;;;;;;-145.63;51.04;39079.00;5027434;28;20109;-67
2024/01/23 09:05:04;;;;;;;31.27;18.35;;;;;;;-145.63;50.87;39069.22;5011788;28;20053;-66
2024/01/23 09:07:29;;;;;;;31.80;18.77;;;;;;;-145.63;51.11;39063.34;5025071;28;20045;-66
2024/01/23 09:09:55;;;;;;;31.80;19.48;;;;;;;-145.63;51.28;39067.28;5025772;28;20038;-68
2024/01/23 09:12:21;;;;;;;32.17;19.40;;;;;;;-145.63;51.18;39092.69;5031606;28;20064;-66
2024/01/23 09:14:47;;;;;;;31.20;19.45;;;;;;;-145.63;50.91;39096.59;5026019;28;20108;-65
2024/01/23 09:17:13;;;;;;;31.20;19.98;;;;;;;-145.63;51.18;39092.69;5034632;28;20120;-65
2024/01/23 09:19:39;;;;;;;27.88;18.83;;;;;;;-145.63;50.80;39077.06;5030747;28;20029;-66
2024/01/23 09:22:06;;;;;;;31.02;19.13;;;;;;;-145.63;50.82;39106.38;5031623;28;20033;-66
2024/01/23 09:24:32;;;;;;;33.78;19.88;;;;;;;-145.63;51.06;39106.38;5031579;28;20450;-65
2024/01/23 09:27:01;;;;;;;29.83;19.58;;;;;;;-145.63;50.80;39075.09;5031286;28;20030;-68
2024/01/23 09:29:27;;;;;;;30.90;18.83;;;;;;;-145.63;50.77;39063.34;5031507;28;20038;-65
2024/01/23 09:31:53;;;;;;;28.38;19.10;;;;;;;-145.63;51.60;39071.19;5031478;28;20088;-66
2024/01/23 09:34:19;;;;;;;29.83;18.45;;;;;;;-145.63;51.15;39073.13;5031622;28;20033;-67
2024/01/23 09:36:45;;;;;;;29.33;18.08;;;;;;;-145.63;51.31;39073.13;5031210;28;20069;-66
2024/01/23 09:39:13;;;;;;;32.63;20.30;;;;;;;-145.63;51.37;39067.28;5025864;28;20431;-66
2024/01/23 09:41:45;;;;;;;32.17;19.70;;;;;;;-145.63;50.70;39079.00;5018032;28;20033;-68
2024/01/23 09:44:11;;;;;;;30.33;18.02;;;;;;;-145.63;51.92;39086.81;5034653;28;20087;-68
2024/01/23 09:46:37;;;;;;;31.90;19.35;;;;;;;-145.63;51.45;39069.22;5033306;28;20033;-68
2024/01/23 09:49:03;;;;;;;28.10;18.33;;;;;;;-145.63;50.80;39079.00;5034252;28;20124;-67
2024/01/23 09:51:29;;;;;;;35.33;19.33;;;;;;;-145.63;50.69;39094.66;5033734;28;20033;-69
2024/01/23 09:53:55;;;;;;;36.08;19.92;;;;;;;-145.63;51.29;39112.25;5033538;28;20647;-66
2024/01/23 09:56:22;;;;;;;30.13;18.65;;;;;;;-145.63;50.70;39073.13;5026283;28;20056;-66
2024/01/23 09:58:49;;;;;;;32.83;20.30;;;;;;;-145.63;51.16;39075.09;5034471;28;20414;-65
2024/01/23 10:01:18;;;;;;;30.23;19.35;;;;;;;-145.63;51.81;39098.56;5033846;28;20087;-65
2024/01/23 10:03:48;;;;;;;30.83;19.25;;;;;;;-145.63;51.29;39071.19;5033367;28;20034;-66
2024/01/23 10:06:14;;;;;;;31.25;19.20;;;;;;;-145.63;51.14;39106.38;5033572;28;20498;-66
2024/01/23 10:08:40;;;;;;;31.38;18.95;;;;;;;-145.63;51.35;39092.69;5029897;28;20045;-66
2024/01/23 10:11:06;;;;;;;32.35;19.60;;;;;;;-145.63;51.58;39096.59;5033608;28;20037;-66
2024/01/23 10:13:37;;;;;;;30.08;18.65;;;;;;;-145.63;52.31;39071.19;5014910;28;20026;-66
2024/01/23 10:16:03;;;;;;;29.13;17.95;;;;;;;-145.63;51.66;39079.00;5029579;28;20088;-65
2024/01/23 10:18:28;;;;;;;30.00;18.55;;;;;;;-145.63;50.95;39096.59;5053905;28;20029;-66
2024/01/23 10:20:54;;;;;;;31.38;18.52;;;;;;;-145.63;51.60;39094.66;5038039;28;20033;-66
2024/01/23 10:23:20;;;;;;;28.85;18.33;;;;;;;-145.63;51.66;39088.78;5033867;28;20444;-64
2024/01/23 10:25:46;;;;;;;29.73;19.20;;;;;;;-145.63;51.66;39106.38;5032887;28;20021;-65
2024/01/23 10:28:13;;;;;;;31.50;19.95;;;;;;;-145.63;52.43;39094.66;5029939;28;20029;-67
2024/01/23 10:30:40;;;;;;;28.55;17.90;;;;;;;-145.63;52.41;39067.28;5030930;28;20049;-65
2024/01/23 10:33:06;;;;;;;25.20;16.90;;;;;;;-145.63;52.05;39092.69;5023944;28;20037;-66
2024/01/23 10:35:33;;;;;;;28.55;19.35;;;;;;;-145.63;51.97;39090.75;4987989;28;1282610;-65
2024/01/23 10:38:02;;;;;;;29.60;19.05;;;;;;;-145.63;52.07;39129.84;5032701;28;20064;-65
2024/01/23 10:40:29;;;;;;;28.42;18.02;;;;;;;-145.63;52.46;39090.75;5033290;28;20609;-66
2024/01/23 10:42:58;;;;;;;26.50;17.98;;;;;;;-145.63;52.31;39086.81;5025130;28;20517;-66
2024/01/23 10:45:24;;;;;;;31.23;19.58;;;;;;;-145.63;52.29;39090.75;5032099;28;20091;-64
2024/01/23 10:47:56;;;;;;;28.42;18.08;;;;;;;-145.63;52.32;39094.66;5033976;28;20040;-66
2024/01/23 10:50:22;;;;;;;29.75;18.48;;;;;;;-145.63;52.10;39106.38;5032835;28;20098;-64
2024/01/23 10:52:48;;;;;;;29.45;18.23;;;;;;;-145.63;52.19;39118.13;5030919;28;20121;-63
2024/01/23 10:55:21;;;;;;;28.23;18.02;;;;;;;-145.63;52.54;39125.94;5028268;28;20037;-65
2024/01/23 10:57:48;;;;;;;31.05;19.25;;;;;;;-145.63;52.44;39104.44;5026696;28;20517;-65